Time;durP1;ratioP1;P1;durP2;ratioP2;P2;SDS_P1;SDS_P2;PMS_P1;PMS_P2;Temp;Humidity;BMP_temperature;BMP_pressure;BME280_temperature;BME280_humidity;BME280_pressure;Samples;Min_cycle;Max_cycle;Signal;HPM_P1;HPM_P2
2021/05/23 00:01:48;;;;;;;2.30;1.20;;;12.20;73.30;;;;;;5078952;28;20492;-48
2021/05/23 00:04:16;;;;;;;4.63;0.80;;;12.20;73.50;;;;;;5080364;28;20934;-48
2021/05/23 00:06:44;;;;;;;2.57;1.20;;;12.20;73.40;;;;;;5076710;28;20515;-48
2021/05/23 00:09:12;;;;;;;1.63;0.97;;;12.30;73.20;;;;;;5078214;28;20858;-48
2021/05/23 00:11:40;;;;;;;1.50;0.87;;;12.20;73.30;;;;;;5079752;28;20448;-49
2021/05/23 00:14:08;;;;;;;1.90;0.80;;;12.20;73.40;;;;;;5080254;28;20993;-48
2021/05/23 00:16:36;;;;;;;3.23;1.30;;;12.20;73.10;;;;;;5079079;28;20461;-48
2021/05/23 00:19:04;;;;;;;1.73;1.63;;;12.30;73.40;;;;;;5079159;28;20455;-48
2021/05/23 00:21:32;;;;;;;1.80;1.10;;;12.20;73.60;;;;;;5082615;28;20455;-48
2021/05/23 00:24:00;;;;;;;3.20;1.20;;;12.30;73.50;;;;;;5077071;28;20472;-49
2021/05/23 00:26:28;;;;;;;2.57;1.07;;;12.30;73.50;;;;;;5080068;28;20496;-49
2021/05/23 00:28:57;;;;;;;1.63;1.20;;;12.30;73.60;;;;;;5079175;28;20526;-48
2021/05/23 00:31:29;;;;;;;1.30;1.10;;;12.30;73.70;;;;;;5077764;28;20531;-48
2021/05/23 00:33:57;;;;;;;3.37;1.20;;;12.20;74.00;;;;;;5081614;28;20445;-48
2021/05/23 00:36:26;;;;;;;1.33;1.10;;;12.30;73.40;;;;;;5082755;28;20453;-48
2021/05/23 00:38:54;;;;;;;3.10;1.20;;;12.30;73.00;;;;;;5079739;28;20489;-48
2021/05/23 00:41:22;;;;;;;3.67;1.10;;;12.20;73.40;;;;;;5079698;28;20461;-49
2021/05/23 00:43:50;;;;;;;1.10;0.97;;;12.20;73.20;;;;;;5078371;28;20968;-49
2021/05/23 00:46:18;;;;;;;1.73;0.97;;;12.10;73.20;;;;;;5081556;28;20456;-48
2021/05/23 00:48:46;;;;;;;3.07;1.43;;;12.10;73.70;;;;;;5074357;28;20445;-48
2021/05/23 00:51:14;;;;;;;1.77;1.43;;;12.10;73.70;;;;;;5081256;28;20451;-49
2021/05/23 00:53:42;;;;;;;2.50;1.37;;;12.00;74.10;;;;;;5080346;28;20489;-48
2021/05/23 00:56:16;;;;;;;3.03;2.10;;;12.00;74.30;;;;;;5078355;28;20457;-48
2021/05/23 00:58:45;;;;;;;3.33;1.90;;;12.00;74.10;;;;;;5078677;28;20449;-49
2021/05/23 01:01:34;;;;;;;2.30;1.53;;;12.00;74.40;;;;;;5076275;28;20800;-48
2021/05/23 01:04:03;;;;;;;3.07;1.30;;;12.00;74.50;;;;;;5076775;28;21011;-48
2021/05/23 01:06:32;;;;;;;3.53;1.00;;;11.90;74.30;;;;;;5076012;28;20449;-48
2021/05/23 01:09:00;;;;;;;7.17;1.67;;;11.90;74.20;;;;;;5079686;28;20981;-48
2021/05/23 01:11:51;;;;;;;1.80;1.20;;;11.90;74.40;;;;;;5079965;28;20445;-48
2021/05/23 01:14:44;;;;;;;1.80;1.10;;;11.80;74.50;;;;;;5075668;28;20495;-48
2021/05/23 01:17:13;;;;;;;2.20;1.30;;;11.80;75.00;;;;;;5077854;28;20453;-49
2021/05/23 01:20:09;;;;;;;2.77;1.33;;;11.80;75.30;;;;;;5078114;28;20544;-48
2021/05/23 01:22:42;;;;;;;3.37;1.00;;;11.80;75.10;;;;;;5076126;28;20457;-48
2021/05/23 01:25:20;;;;;;;1.70;1.30;;;11.70;75.10;;;;;;5076095;28;20449;-48
2021/05/23 01:27:51;;;;;;;2.00;1.30;;;11.80;75.20;;;;;;5078100;28;20460;-49
2021/05/23 01:30:30;;;;;;;3.13;1.67;;;11.70;75.20;;;;;;5076207;28;20478;-48
2021/05/23 01:33:01;;;;;;;2.90;1.47;;;11.70;75.30;;;;;;5079633;28;20824;-49
2021/05/23 01:35:54;;;;;;;4.37;1.30;;;11.70;75.40;;;;;;5081068;28;20445;-48
2021/05/23 01:38:24;;;;;;;3.07;1.10;;;11.70;75.60;;;;;;5076792;28;20461;-48
2021/05/23 01:40:56;;;;;;;3.43;1.07;;;11.70;75.50;;;;;;5076800;28;20456;-48
2021/05/23 01:43:26;;;;;;;2.83;1.50;;;11.70;75.60;;;;;;5075001;28;20465;-49
2021/05/23 01:45:54;;;;;;;5.53;1.40;;;11.70;75.50;;;;;;5078782;28;20829;-49
2021/05/23 01:48:22;;;;;;;4.13;1.17;;;11.70;75.70;;;;;;5077592;28;20468;-48
2021/05/23 01:50:51;;;;;;;3.13;1.30;;;11.70;75.80;;;;;;5079592;28;20566;-48
2021/05/23 01:53:19;;;;;;;8.37;1.87;;;11.70;75.80;;;;;;5076732;28;20480;-49
2021/05/23 01:55:48;;;;;;;3.20;1.80;;;11.80;76.10;;;;;;5076022;28;20458;-48
2021/05/23 01:58:16;;;;;;;2.47;1.60;;;11.80;75.90;;;;;;5078674;28;20456;-49
2021/05/23 02:00:46;;;;;;;2.93;1.20;;;11.80;76.00;;;;;;5076739;28;20944;-49
2021/05/23 02:03:17;;;;;;;4.73;1.10;;;11.80;75.80;;;;;;5076897;28;20461;-48
2021/05/23 02:05:54;;;;;;;2.60;1.17;;;11.80;75.50;;;;;;5076215;28;20464;-48
2021/05/23 02:08:24;;;;;;;1.20;1.10;;;11.80;75.40;;;;;;5073936;28;20843;-48
2021/05/23 02:10:58;;;;;;;1.23;1.10;;;11.80;75.60;;;;;;5077580;28;20486;-48
2021/05/23 02:13:26;;;;;;;2.27;1.07;;;11.80;75.70;;;;;;5075794;28;21070;-49
2021/05/23 02:15:55;;;;;;;1.77;1.00;;;11.80;75.60;;;;;;5075331;28;20466;-48
2021/05/23 02:18:23;;;;;;;6.20;1.20;;;11.80;75.50;;;;;;5076675;28;20506;-48
2021/05/23 02:20:51;;;;;;;4.60;1.37;;;11.70;75.90;;;;;;5078161;28;20460;-48
2021/05/23 02:23:22;;;;;;;2.60;1.17;;;11.70;75.80;;;;;;5075366;28;20457;-48
2021/05/23 02:25:51;;;;;;;2.50;1.43;;;11.70;76.10;;;;;;5075127;28;20558;-49
2021/05/23 02:28:21;;;;;;;2.37;1.20;;;11.70;75.80;;;;;;5074915;28;21104;-48
2021/05/23 02:30:58;;;;;;;3.87;1.40;;;11.70;75.60;;;;;;5075094;28;20499;-48
2021/05/23 02:33:27;;;;;;;2.73;1.27;;;11.70;75.70;;;;;;5076368;28;20452;-48
2021/05/23 02:35:56;;;;;;;1.67;1.00;;;11.60;75.70;;;;;;5074800;28;20460;-48
2021/05/23 02:38:25;;;;;;;2.40;1.63;;;11.60;75.70;;;;;;5075667;28;20460;-48
2021/05/23 02:40:53;;;;;;;1.80;1.50;;;11.60;75.80;;;;;;5075602;28;20954;-48
2021/05/23 02:43:22;;;;;;;1.70;1.23;;;11.60;75.90;;;;;;5076235;28;20464;-48
2021/05/23 02:45:51;;;;;;;1.27;1.00;;;11.60;75.70;;;;;;5074832;28;20964;-48
2021/05/23 02:48:19;;;;;;;1.13;0.97;;;11.50;75.90;;;;;;5078220;28;20469;-48
2021/05/23 02:50:50;;;;;;;2.00;1.50;;;11.60;75.70;;;;;;5080025;28;20486;-48
2021/05/23 02:53:19;;;;;;;2.53;1.57;;;11.60;75.50;;;;;;5078110;28;20433;-48
2021/05/23 02:55:49;;;;;;;2.03;1.57;;;11.60;75.70;;;;;;5074130;28;20828;-48
2021/05/23 02:58:17;;;;;;;1.63;1.00;;;11.60;75.90;;;;;;5076130;28;20462;-48
2021/05/23 03:00:46;;;;;;;2.73;1.47;;;11.60;75.80;;;;;;5076012;28;20457;-50
2021/05/23 03:03:16;;;;;;;1.50;1.40;;;11.60;75.70;;;;;;5076057;28;20837;-50
2021/05/23 03:05:45;;;;;;;3.13;1.60;;;11.60;75.80;;;;;;5077662;28;20456;-49
2021/05/23 03:08:13;;;;;;;2.40;1.53;;;11.60;76.10;;;;;;5075843;28;20486;-50
2021/05/23 03:10:51;;;;;;;3.13;1.30;;;11.60;75.90;;;;;;5076511;28;20493;-50
2021/05/23 03:13:20;;;;;;;2.90;1.40;;;11.50;75.90;;;;;;5077407;28;20457;-50
2021/05/23 03:15:49;;;;;;;2.30;1.53;;;11.50;75.70;;;;;;5076877;28;20925;-50
2021/05/23 03:18:17;;;;;;;2.13;1.30;;;11.40;76.00;;;;;;5075662;28;20448;-50
2021/05/23 03:20:45;;;;;;;1.70;1.30;;;11.40;75.90;;;;;;5076164;28;20984;-49
2021/05/23 03:23:13;;;;;;;2.17;1.43;;;11.40;75.80;;;;;;5078779;28;20453;-49
2021/05/23 03:25:41;;;;;;;4.33;1.30;;;11.30;76.20;;;;;;5075155;28;20477;-50
2021/05/23 03:28:10;;;;;;;1.83;0.97;;;11.30;76.30;;;;;;5077581;28;20973;-50
2021/05/23 03:30:41;;;;;;;6.17;1.20;;;11.30;76.00;;;;;;5078322;28;20481;-50
2021/05/23 03:33:11;;;;;;;4.47;1.30;;;11.20;76.30;;;;;;5072634;28;20544;-51
2021/05/23 03:35:41;;;;;;;1.20;0.83;;;11.20;76.20;;;;;;5075352;28;20466;-49
2021/05/23 03:38:09;;;;;;;2.70;1.20;;;11.20;76.40;;;;;;5075102;28;20479;-49
2021/05/23 03:40:39;;;;;;;1.90;1.27;;;11.20;76.50;;;;;;5075159;28;20461;-50
2021/05/23 03:43:08;;;;;;;6.57;4.73;;;11.20;76.30;;;;;;5076028;28;20460;-49
2021/05/23 03:45:37;;;;;;;2.53;2.13;;;11.20;76.00;;;;;;5076149;28;21030;-50
2021/05/23 03:48:07;;;;;;;1.67;1.57;;;11.20;76.00;;;;;;5075373;28;20456;-50
2021/05/23 03:50:35;;;;;;;2.83;1.30;;;11.10;76.30;;;;;;5074492;28;20481;-50
2021/05/23 03:53:03;;;;;;;3.90;1.40;;;11.10;76.30;;;;;;5076523;28;21028;-50
2021/05/23 03:55:31;;;;;;;2.37;1.60;;;11.10;76.90;;;;;;5076259;28;20467;-49
2021/05/23 03:57:59;;;;;;;2.93;1.43;;;11.10;77.00;;;;;;5075716;28;20770;-50
2021/05/23 04:00:27;;;;;;;2.07;1.87;;;11.10;77.00;;;;;;5074096;28;20977;-50
2021/05/23 04:02:57;;;;;;;2.10;1.13;;;11.10;76.80;;;;;;5074545;28;20461;-50
2021/05/23 04:05:26;;;;;;;1.33;1.03;;;11.10;76.60;;;;;;5073338;28;20468;-51
2021/05/23 04:07:55;;;;;;;2.53;1.23;;;11.10;76.50;;;;;;5077472;28;20472;-50
2021/05/23 04:10:28;;;;;;;5.40;1.50;;;11.10;76.40;;;;;;5077786;28;20477;-50
2021/05/23 04:13:00;;;;;;;0.77;0.77;;;11.10;76.70;;;;;;5075885;28;20456;-49
2021/05/23 04:15:28;;;;;;;1.43;1.30;;;11.10;76.60;;;;;;5075255;28;20457;-50
2021/05/23 04:17:56;;;;;;;3.30;1.10;;;11.10;76.50;;;;;;5080700;28;20854;-49
2021/05/23 04:20:25;;;;;;;3.10;1.37;;;11.10;76.60;;;;;;5082481;28;20985;-50
2021/05/23 04:22:55;;;;;;;3.30;1.53;;;11.10;76.30;;;;;;5075652;28;20564;-50
2021/05/23 04:25:25;;;;;;;1.90;1.10;;;11.10;76.80;;;;;;5080159;28;20478;-50
2021/05/23 04:27:53;;;;;;;3.10;1.27;;;11.10;76.50;;;;;;5077271;28;20445;-50
2021/05/23 04:30:24;;;;;;;3.60;1.13;;;11.20;76.20;;;;;;5081781;28;21182;-50
2021/05/23 04:32:52;;;;;;;1.90;1.70;;;11.10;76.50;;;;;;5080747;28;20497;-50
2021/05/23 04:35:21;;;;;;;1.83;1.30;;;11.10;76.50;;;;;;5082040;28;20449;-50
2021/05/23 04:37:49;;;;;;;6.13;1.60;;;11.10;76.00;;;;;;5082298;28;21267;-50
2021/05/23 04:40:18;;;;;;;1.33;1.23;;;11.10;76.30;;;;;;5076785;28;20468;-50
2021/05/23 04:42:47;;;;;;;3.57;1.37;;;11.10;76.70;;;;;;5077402;28;20441;-50
2021/05/23 04:45:36;;;;;;;2.90;1.80;;;11.20;76.70;;;;;;5078574;28;20531;-49
2021/05/23 04:48:07;;;;;;;2.30;2.10;;;11.20;76.70;;;;;;5077156;28;20454;-50
2021/05/23 04:50:35;;;;;;;2.70;1.87;;;11.20;76.90;;;;;;5078681;28;20485;-50
2021/05/23 04:53:05;;;;;;;5.50;1.20;;;11.30;76.70;;;;;;5077368;28;20464;-50
2021/05/23 04:55:33;;;;;;;2.50;1.40;;;11.30;76.70;;;;;;5079490;28;20457;-50
2021/05/23 04:58:03;;;;;;;3.93;1.33;;;11.30;76.70;;;;;;5079707;28;20483;-50
2021/05/23 05:00:31;;;;;;;1.33;1.13;;;11.40;76.30;;;;;;5078135;28;20445;-50
2021/05/23 05:03:00;;;;;;;1.63;1.50;;;11.50;75.80;;;;;;5079769;28;20495;-50
2021/05/23 05:05:28;;;;;;;1.40;1.20;;;11.50;75.20;;;;;;5076395;28;20438;-50
2021/05/23 05:07:59;;;;;;;2.10;1.30;;;11.40;75.50;;;;;;5075898;28;22026;-50
2021/05/23 05:10:27;;;;;;;1.43;1.20;;;11.50;75.80;;;;;;5077897;28;21423;-50
2021/05/23 05:12:56;;;;;;;3.30;1.47;;;11.50;75.80;;;;;;5080293;28;20488;-50
2021/05/23 05:15:25;;;;;;;2.20;2.00;;;11.50;75.90;;;;;;5078473;28;20453;-50
2021/05/23 05:17:54;;;;;;;2.03;1.40;;;11.50;75.80;;;;;;5077915;28;20547;-50
2021/05/23 05:20:22;;;;;;;3.60;1.30;;;11.50;75.90;;;;;;5079476;28;20449;-50
2021/05/23 05:22:52;;;;;;;2.40;1.20;;;11.50;75.60;;;;;;5076125;28;20471;-50
2021/05/23 05:25:21;;;;;;;1.63;1.43;;;11.50;75.60;;;;;;5077938;28;20445;-49
2021/05/23 05:27:50;;;;;;;2.57;2.00;;;11.50;76.00;;;;;;5077837;28;20978;-49
2021/05/23 05:30:19;;;;;;;1.90;1.57;;;11.50;75.80;;;;;;5077902;28;20449;-50
2021/05/23 05:32:47;;;;;;;3.50;1.60;;;11.50;75.80;;;;;;5078802;28;20943;-50
2021/05/23 05:35:15;;;;;;;2.70;1.30;;;11.50;75.90;;;;;;5076773;28;20488;-50
2021/05/23 05:37:49;;;;;;;1.83;1.43;;;11.50;75.80;;;;;;5075122;28;20498;-50
2021/05/23 05:40:17;;;;;;;1.77;1.47;;;11.60;76.00;;;;;;5075577;28;20496;-50
2021/05/23 05:42:45;;;;;;;2.73;1.80;;;11.60;75.90;;;;;;5079550;28;20453;-50
2021/05/23 05:45:13;;;;;;;4.87;2.00;;;11.60;75.90;;;;;;5076171;28;20974;-49
2021/05/23 05:47:41;;;;;;;1.90;1.60;;;11.60;76.10;;;;;;5077341;28;20450;-49
2021/05/23 05:50:10;;;;;;;2.27;1.70;;;11.70;76.00;;;;;;5078401;28;20465;-49
2021/05/23 05:52:39;;;;;;;1.50;1.40;;;11.70;76.00;;;;;;5076446;28;20991;-49
2021/05/23 05:55:07;;;;;;;2.23;2.00;;;11.80;75.80;;;;;;5076643;28;21028;-49
2021/05/23 05:57:36;;;;;;;1.60;1.27;;;11.80;76.00;;;;;;5076859;28;20464;-50
2021/05/23 06:00:05;;;;;;;1.70;1.60;;;11.90;75.20;;;;;;5079277;28;20545;-50
2021/05/23 06:02:33;;;;;;;2.70;1.90;;;11.90;75.30;;;;;;5075822;28;20455;-50
2021/05/23 06:05:01;;;;;;;2.07;1.90;;;12.00;75.30;;;;;;5077280;28;20821;-49
2021/05/23 06:07:29;;;;;;;3.00;2.07;;;12.00;75.80;;;;;;5078442;28;20836;-50
2021/05/23 06:09:58;;;;;;;2.43;1.93;;;12.00;75.80;;;;;;5077505;28;20580;-50
2021/05/23 06:12:28;;;;;;;2.67;1.90;;;12.10;75.80;;;;;;5076762;28;20507;-50
2021/05/23 06:14:57;;;;;;;2.50;2.00;;;12.20;75.00;;;;;;5073069;28;20453;-49
2021/05/23 06:17:25;;;;;;;2.67;1.50;;;12.30;74.20;;;;;;5075594;28;21147;-50
2021/05/23 06:19:54;;;;;;;1.97;1.80;;;12.30;74.20;;;;;;5077936;28;20693;-50
2021/05/23 06:22:22;;;;;;;2.10;1.43;;;12.30;74.10;;;;;;5078024;28;20473;-50
2021/05/23 06:24:50;;;;;;;2.13;1.60;;;12.30;74.20;;;;;;5078436;28;20442;-50
2021/05/23 06:27:18;;;;;;;1.90;1.53;;;12.30;73.80;;;;;;5075404;28;20458;-49
2021/05/23 06:29:46;;;;;;;1.60;1.50;;;12.30;74.20;;;;;;5078357;28;20461;-49
2021/05/23 06:32:14;;;;;;;1.77;1.60;;;12.40;74.00;;;;;;5077478;28;20511;-50
2021/05/23 06:34:42;;;;;;;2.20;1.67;;;12.40;74.10;;;;;;5076605;28;20450;-50
2021/05/23 06:37:10;;;;;;;2.43;1.70;;;12.50;73.70;;;;;;5074073;28;20445;-50
2021/05/23 06:39:39;;;;;;;5.10;1.63;;;12.70;73.50;;;;;;5080891;28;20457;-50
2021/05/23 06:42:07;;;;;;;2.10;1.37;;;12.80;73.10;;;;;;5076656;28;21075;-49
2021/05/23 06:44:34;;;;;;;1.50;1.10;;;12.90;72.90;;;;;;5076411;28;20457;-50
2021/05/23 06:47:03;;;;;;;1.97;1.60;;;12.90;72.50;;;;;;5080326;28;20460;-50
2021/05/23 06:49:31;;;;;;;2.30;1.30;;;13.00;71.60;;;;;;5078715;28;21452;-49
2021/05/23 06:51:59;;;;;;;1.80;1.40;;;13.10;72.00;;;;;;5076769;28;21007;-51
2021/05/23 06:54:27;;;;;;;1.60;1.50;;;13.20;71.40;;;;;;5077448;28;20449;-50
2021/05/23 06:56:56;;;;;;;1.70;1.33;;;13.30;71.30;;;;;;5077033;28;20450;-51
2021/05/23 06:59:24;;;;;;;2.93;1.50;;;13.50;70.10;;;;;;5079037;28;20449;-50
2021/05/23 07:01:52;;;;;;;2.17;1.03;;;13.60;69.10;;;;;;5073976;28;20463;-50
2021/05/23 07:04:20;;;;;;;2.50;1.17;;;13.80;68.20;;;;;;5081074;28;20945;-50
2021/05/23 07:06:48;;;;;;;1.63;1.10;;;13.90;67.00;;;;;;5076487;28;20480;-50
2021/05/23 07:09:16;;;;;;;1.70;1.30;;;14.00;67.50;;;;;;5076153;28;20842;-50
2021/05/23 07:11:44;;;;;;;1.43;1.27;;;14.10;66.80;;;;;;5073670;28;20484;-50
2021/05/23 07:14:12;;;;;;;0.83;0.83;;;14.20;66.50;;;;;;5077681;28;20876;-50
2021/05/23 07:16:40;;;;;;;2.90;1.30;;;14.20;65.80;;;;;;5074394;28;20946;-50
2021/05/23 07:19:08;;;;;;;1.10;1.00;;;14.30;66.60;;;;;;5077462;28;20453;-50
2021/05/23 07:21:36;;;;;;;1.23;1.10;;;14.50;65.60;;;;;;5075668;28;20457;-50
2021/05/23 07:24:05;;;;;;;1.43;1.20;;;14.50;64.80;;;;;;5074916;28;20456;-50
2021/05/23 07:26:33;;;;;;;1.93;1.77;;;14.50;65.10;;;;;;5072966;28;21031;-50
2021/05/23 07:29:01;;;;;;;1.90;1.00;;;14.50;65.90;;;;;;5071738;28;20481;-50
2021/05/23 07:31:31;;;;;;;1.67;1.33;;;14.50;64.80;;;;;;5075365;28;21001;-50
2021/05/23 07:33:59;;;;;;;2.43;1.30;;;14.60;64.00;;;;;;5072882;28;20481;-50
2021/05/23 07:36:27;;;;;;;2.40;1.10;;;14.60;63.90;;;;;;5075208;28;20456;-50
2021/05/23 07:38:55;;;;;;;3.63;1.00;;;14.50;63.70;;;;;;5077462;28;20446;-50
2021/05/23 07:41:24;;;;;;;3.80;1.10;;;14.40;64.30;;;;;;5077421;28;20456;-50
2021/05/23 07:43:52;;;;;;;3.03;1.20;;;14.40;64.30;;;;;;5074491;28;20491;-50
2021/05/23 07:46:19;;;;;;;1.97;1.60;;;14.40;64.40;;;;;;5072157;28;20457;-50
2021/05/23 07:48:48;;;;;;;1.10;0.93;;;14.30;64.80;;;;;;5075089;28;20502;-50
2021/05/23 07:51:15;;;;;;;1.67;1.07;;;14.30;64.10;;;;;;5079555;28;20503;-50
2021/05/23 07:53:43;;;;;;;1.13;1.10;;;14.30;64.30;;;;;;5082238;28;20452;-51
2021/05/23 07:56:11;;;;;;;4.20;1.50;;;14.30;65.10;;;;;;5077432;28;20469;-50
2021/05/23 07:58:40;;;;;;;1.60;1.07;;;14.40;64.70;;;;;;5077640;28;20441;-48
2021/05/23 08:01:08;;;;;;;1.43;1.00;;;14.60;64.50;;;;;;5074750;28;20484;-50
2021/05/23 08:03:36;;;;;;;2.33;1.03;;;14.70;63.00;;;;;;5079662;28;20933;-50
2021/05/23 08:06:05;;;;;;;6.03;1.77;;;14.80;63.60;;;;;;5076225;28;20458;-49
2021/05/23 08:08:33;;;;;;;2.77;1.53;;;14.80;62.60;;;;;;5076968;28;20492;-50
2021/05/23 08:11:03;;;;;;;1.80;1.33;;;14.80;61.70;;;;;;5079911;28;20582;-50
2021/05/23 08:13:31;;;;;;;1.93;1.07;;;14.90;60.60;;;;;;5085911;28;20444;-50
2021/05/23 08:16:00;;;;;;;2.17;1.40;;;14.80;61.40;;;;;;5077937;28;20448;-51
2021/05/23 08:18:28;;;;;;;2.83;1.10;;;14.90;61.40;;;;;;5079359;28;20464;-50
2021/05/23 08:21:02;;;;;;;1.13;1.03;;;14.80;59.50;;;;;;5078236;28;20449;-50
2021/05/23 08:23:31;;;;;;;1.40;1.30;;;14.80;59.50;;;;;;5082786;28;20449;-50
2021/05/23 08:26:00;;;;;;;2.83;1.20;;;14.70;61.20;;;;;;5082077;28;20453;-50
2021/05/23 08:28:31;;;;;;;2.47;1.10;;;14.80;61.00;;;;;;5083054;28;20480;-50
2021/05/23 08:31:00;;;;;;;2.60;1.23;;;14.90;61.00;;;;;;5082169;28;20472;-50
2021/05/23 08:33:31;;;;;;;2.30;1.20;;;15.10;61.00;;;;;;5079928;28;20499;-50
2021/05/23 08:36:00;;;;;;;4.63;1.30;;;15.30;58.60;;;;;;5081220;28;20449;-50
2021/05/23 08:38:29;;;;;;;3.47;1.10;;;15.40;58.50;;;;;;5082416;28;20471;-50
2021/05/23 08:41:00;;;;;;;1.73;1.10;;;15.60;57.40;;;;;;5080921;28;20464;-50
2021/05/23 08:43:29;;;;;;;4.60;1.57;;;15.80;57.00;;;;;;5081825;28;20444;-51
2021/05/23 08:45:59;;;;;;;2.13;1.00;;;15.90;58.00;;;;;;5077756;28;20488;-50
2021/05/23 08:48:27;;;;;;;1.30;1.20;;;16.10;57.10;;;;;;5081306;28;20457;-50
2021/05/23 08:50:55;;;;;;;1.83;1.30;;;16.20;55.60;;;;;;5080390;28;20856;-50
2021/05/23 08:53:23;;;;;;;2.60;1.00;;;16.10;56.40;;;;;;5080476;28;20518;-50
2021/05/23 08:55:52;;;;;;;4.07;1.23;;;16.00;57.50;;;;;;5080057;28;20457;-50
2021/05/23 08:58:23;;;;;;;3.63;0.93;;;16.00;56.70;;;;;;5079238;28;20449;-50
2021/05/23 09:00:51;;;;;;;3.37;1.10;;;16.00;57.80;;;;;;5075135;28;20934;-50
2021/05/23 09:03:19;;;;;;;2.40;1.37;;;16.00;57.90;;;;;;5080614;28;20448;-50
2021/05/23 09:05:57;;;;;;;1.43;1.33;;;16.00;56.00;;;;;;5078812;28;21003;-51
2021/05/23 09:08:31;;;;;;;3.20;1.40;;;15.90;56.40;;;;;;5079924;28;20517;-50
2021/05/23 09:11:01;;;;;;;2.17;1.20;;;15.80;57.00;;;;;;5081481;28;20515;-50
2021/05/23 09:13:33;;;;;;;1.80;1.20;;;15.80;58.00;;;;;;5079146;28;20953;-50
2021/05/23 09:16:04;;;;;;;1.60;1.20;;;16.00;57.60;;;;;;5077653;28;20935;-50
2021/05/23 09:18:56;;;;;;;1.47;1.10;;;16.40;57.20;;;;;;5078767;28;20464;-50
2021/05/23 09:21:27;;;;;;;3.17;1.10;;;16.90;56.80;;;;;;5079938;28;20808;-50
2021/05/23 09:23:59;;;;;;;2.73;1.53;;;17.30;55.10;;;;;;5076764;28;20507;-51
2021/05/23 09:26:33;;;;;;;1.27;1.10;;;17.70;54.30;;;;;;5080237;28;20433;-50
2021/05/23 09:29:05;;;;;;;3.13;1.77;;;18.10;52.90;;;;;;5079011;28;20449;-50
2021/05/23 09:31:35;;;;;;;1.60;1.20;;;18.30;52.30;;;;;;5078928;28;21020;-50
2021/05/23 09:34:03;;;;;;;8.03;4.40;;;18.50;49.50;;;;;;5078723;28;20809;-50
2021/05/23 09:36:46;;;;;;;3.00;1.20;;;18.80;49.20;;;;;;5080378;28;20457;-50
2021/05/23 09:39:15;;;;;;;3.53;0.83;;;19.30;48.60;;;;;;5083288;28;20440;-50
2021/05/23 09:41:45;;;;;;;1.63;0.80;;;19.60;47.80;;;;;;5083099;28;20464;-50
2021/05/23 09:44:18;;;;;;;3.20;1.60;;;19.40;48.00;;;;;;5082005;28;20457;-50
2021/05/23 09:46:53;;;;;;;2.77;1.03;;;19.00;49.00;;;;;;5080897;28;20460;-50
2021/05/23 09:49:22;;;;;;;1.57;1.03;;;18.60;50.00;;;;;;5082594;28;20436;-50
2021/05/23 09:52:02;;;;;;;1.60;1.50;;;18.80;50.80;;;;;;5078765;28;20485;-50
2021/05/23 09:54:42;;;;;;;1.20;1.10;;;19.30;50.60;;;;;;5081160;28;20464;-50
2021/05/23 09:57:19;;;;;;;4.23;1.10;;;19.80;48.70;;;;;;5077077;28;20808;-50
2021/05/23 10:00:09;;;;;;;1.53;1.03;;;20.20;48.60;;;;;;5079545;28;20472;-50
2021/05/23 10:02:58;;;;;;;2.40;1.13;;;20.50;48.20;;;;;;5079249;28;20456;-50
2021/05/23 10:05:27;;;;;;;2.10;1.10;;;20.40;47.70;;;;;;5077332;28;20449;-50
2021/05/23 10:07:56;;;;;;;2.80;1.27;;;19.90;48.40;;;;;;5077547;28;20456;-50
2021/05/23 10:10:26;;;;;;;2.50;1.33;;;19.30;50.00;;;;;;5079700;28;20988;-51
2021/05/23 10:12:55;;;;;;;3.87;1.73;;;18.80;51.30;;;;;;5078252;28;20485;-50
2021/05/23 10:15:24;;;;;;;1.70;1.60;;;18.40;52.70;;;;;;5078632;28;20453;-50
2021/05/23 10:17:56;;;;;;;4.20;2.10;;;18.10;53.70;;;;;;5076302;28;20942;-50
2021/05/23 10:20:28;;;;;;;1.80;1.70;;;18.00;53.90;;;;;;5076567;28;20440;-50
2021/05/23 10:23:22;;;;;;;2.20;1.40;;;17.80;55.30;;;;;;5079158;28;20461;-50
2021/05/23 10:26:01;;;;;;;2.53;1.70;;;17.70;53.30;;;;;;5076870;28;21118;-50
2021/05/23 10:28:36;;;;;;;3.97;1.83;;;17.70;53.80;;;;;;5077154;28;20444;-50
2021/05/23 10:31:13;;;;;;;2.20;2.00;;;17.50;57.10;;;;;;5075211;28;20911;-50
2021/05/23 10:33:54;;;;;;;3.30;2.27;;;17.20;59.00;;;;;;5074727;28;20481;-50
2021/05/23 10:36:40;;;;;;;2.10;1.37;;;16.80;62.40;;;;;;5077307;28;20825;-50
2021/05/23 10:39:10;;;;;;;2.73;1.17;;;16.50;63.50;;;;;;5081477;28;20433;-50
2021/05/23 10:41:39;;;;;;;1.50;1.10;;;16.20;64.70;;;;;;5078492;28;20448;-50
2021/05/23 10:44:25;;;;;;;1.93;1.00;;;16.00;63.90;;;;;;5077041;28;20526;-50
2021/05/23 10:46:54;;;;;;;2.60;1.30;;;15.90;65.00;;;;;;5076706;28;20441;-50
2021/05/23 10:49:22;;;;;;;1.47;1.37;;;15.80;65.20;;;;;;5078250;28;20457;-50
2021/05/23 10:51:55;;;;;;;1.33;1.23;;;15.80;66.90;;;;;;5080249;28;20493;-50
2021/05/23 10:54:24;;;;;;;1.93;1.43;;;15.80;67.20;;;;;;5079629;28;20871;-50
2021/05/23 10:57:03;;;;;;;2.17;1.00;;;15.70;68.20;;;;;;5080517;28;20515;-50
2021/05/23 10:59:32;;;;;;;2.50;1.33;;;15.80;65.10;;;;;;5077046;28;20449;-50
2021/05/23 11:02:00;;;;;;;0.90;0.87;;;15.80;64.40;;;;;;5074816;28;20468;-50
2021/05/23 11:04:41;;;;;;;1.53;1.20;;;15.80;63.30;;;;;;5084059;28;20437;-50
2021/05/23 11:07:11;;;;;;;2.00;1.80;;;15.80;64.40;;;;;;5076485;28;20453;-50
2021/05/23 11:09:43;;;;;;;2.53;1.73;;;15.80;63.70;;;;;;5076537;28;20479;-50
2021/05/23 11:12:13;;;;;;;2.17;1.80;;;15.80;64.40;;;;;;5078907;28;20488;-50
2021/05/23 11:14:52;;;;;;;2.07;1.90;;;15.80;63.20;;;;;;5079109;28;20499;-50
2021/05/23 11:17:22;;;;;;;2.17;1.70;;;15.70;65.20;;;;;;5077657;28;20460;-50
2021/05/23 11:19:50;;;;;;;1.70;1.60;;;15.60;66.90;;;;;;5075151;28;20464;-50
2021/05/23 11:22:17;;;;;;;1.40;1.30;;;15.50;68.50;;;;;;5078156;28;20461;-50
2021/05/23 11:24:51;;;;;;;1.67;1.23;;;15.40;68.00;;;;;;5081694;28;20464;-50
2021/05/23 11:27:19;;;;;;;1.03;0.90;;;15.40;68.60;;;;;;5082421;28;20970;-50
2021/05/23 11:29:51;;;;;;;1.90;1.17;;;15.40;67.90;;;;;;5080405;28;20445;-50
2021/05/23 11:32:19;;;;;;;1.10;1.10;;;15.50;67.30;;;;;;5084644;28;20993;-50
2021/05/23 11:34:47;;;;;;;2.10;1.27;;;15.60;67.40;;;;;;5081321;28;20441;-50
2021/05/23 11:37:15;;;;;;;1.93;1.30;;;15.60;66.90;;;;;;5082280;28;20449;-50
2021/05/23 11:39:44;;;;;;;2.47;1.07;;;15.70;64.70;;;;;;5083115;28;20441;-50
2021/05/23 11:42:12;;;;;;;1.63;1.00;;;15.70;65.80;;;;;;5082397;28;21028;-50
2021/05/23 11:44:43;;;;;;;1.10;1.00;;;15.70;64.50;;;;;;5082877;28;20459;-50
2021/05/23 11:47:11;;;;;;;1.30;1.07;;;15.70;65.10;;;;;;5082551;28;20453;-50
2021/05/23 11:49:44;;;;;;;1.83;1.73;;;15.70;63.90;;;;;;5082340;28;20471;-50
2021/05/23 11:52:17;;;;;;;3.63;1.10;;;15.70;65.60;;;;;;5081831;28;21070;-50
2021/05/23 11:54:45;;;;;;;2.07;1.10;;;15.90;63.70;;;;;;5082122;28;20457;-50
2021/05/23 11:57:18;;;;;;;1.87;1.10;;;16.00;64.00;;;;;;5083072;28;20457;-51
2021/05/23 11:59:46;;;;;;;2.50;1.03;;;16.10;62.90;;;;;;5080553;28;20496;-50
2021/05/23 12:02:15;;;;;;;1.97;1.13;;;16.30;60.90;;;;;;5080963;28;20441;-50
2021/05/23 12:04:43;;;;;;;1.93;0.90;;;16.40;61.50;;;;;;5080457;28;20457;-51
2021/05/23 12:07:11;;;;;;;2.73;1.10;;;16.50;60.30;;;;;;5079353;28;20455;-50
2021/05/23 12:09:40;;;;;;;1.00;0.80;;;16.50;61.10;;;;;;5081080;28;20462;-51
2021/05/23 12:12:08;;;;;;;2.57;1.13;;;16.50;60.20;;;;;;5079571;28;20785;-50
2021/05/23 12:14:38;;;;;;;3.90;0.80;;;16.50;59.30;;;;;;5083032;28;20456;-50
2021/05/23 12:17:07;;;;;;;1.40;0.80;;;16.40;59.80;;;;;;5079990;28;20445;-51
2021/05/23 12:19:56;;;;;;;1.17;0.50;;;16.30;61.20;;;;;;5082651;28;20449;-50
2021/05/23 12:22:42;;;;;;;1.30;0.73;;;16.20;62.00;;;;;;5082132;28;20461;-50
2021/05/23 12:25:14;;;;;;;2.50;0.87;;;16.10;63.90;;;;;;5082640;28;20495;-50
2021/05/23 12:27:46;;;;;;;3.53;2.20;;;16.10;63.60;;;;;;5079078;28;20456;-50
2021/05/23 12:30:22;;;;;;;0.90;0.60;;;16.10;62.30;;;;;;5082001;28;20462;-50
2021/05/23 12:32:53;;;;;;;1.50;1.20;;;16.00;61.70;;;;;;5078736;28;20484;-50
2021/05/23 12:35:25;;;;;;;1.20;1.10;;;15.90;61.50;;;;;;5078848;28;20492;-50
2021/05/23 12:37:55;;;;;;;0.80;0.60;;;15.90;62.50;;;;;;5081577;28;20509;-50
2021/05/23 12:40:32;;;;;;;1.70;0.60;;;15.90;61.40;;;;;;5079954;28;20446;-50
2021/05/23 12:43:24;;;;;;;2.23;0.80;;;16.00;61.60;;;;;;5081299;28;20511;-50
2021/05/23 12:45:58;;;;;;;1.90;1.07;;;16.10;61.70;;;;;;5080509;28;20533;-50
2021/05/23 12:48:35;;;;;;;1.10;0.90;;;16.20;60.60;;;;;;5078875;28;20441;-50
2021/05/23 12:51:15;;;;;;;0.70;0.70;;;16.30;59.20;;;;;;5080874;28;20505;-51
2021/05/23 12:53:46;;;;;;;1.27;0.80;;;16.40;59.30;;;;;;5078649;28;20485;-50
2021/05/23 12:56:16;;;;;;;1.63;0.67;;;16.40;58.30;;;;;;5081699;28;20513;-51
2021/05/23 12:58:50;;;;;;;0.70;0.70;;;16.50;56.80;;;;;;5079506;28;20477;-50
2021/05/23 13:01:34;;;;;;;1.07;0.60;;;16.50;57.10;;;;;;5077863;28;20446;-50
2021/05/23 13:04:08;;;;;;;1.60;0.53;;;16.60;57.40;;;;;;5084005;28;20452;-50
2021/05/23 13:06:52;;;;;;;2.40;0.70;;;16.60;57.00;;;;;;5076565;28;20465;-50